createdAt,value
2023-02-28T00:00:46.452Z,5.88
2023-02-28T00:03:13.560Z,7.09
2023-02-28T00:05:40.801Z,6.55
2023-02-28T00:08:08.089Z,6.93
2023-02-28T00:10:35.725Z,6.16
2023-02-28T00:13:05.886Z,5.56
2023-02-28T00:15:34.019Z,6.27
2023-02-28T00:18:01.316Z,7.15
2023-02-28T00:20:28.446Z,6.54
2023-02-28T00:22:56.769Z,5.73
2023-02-28T00:25:26.121Z,5.36
2023-02-28T00:27:53.723Z,5.33
2023-02-28T00:30:23.186Z,5.51
2023-02-28T00:32:59.151Z,6.74
2023-02-28T00:35:26.131Z,6.60
2023-02-28T00:37:53.260Z,5.58
2023-02-28T00:40:20.416Z,5.83
2023-02-28T00:42:47.404Z,5.42
2023-02-28T00:45:14.578Z,5.34
2023-02-28T00:47:41.671Z,5.22
2023-02-28T00:50:09.760Z,5.90
2023-02-28T00:52:37.488Z,6.01
2023-02-28T00:55:05.077Z,5.34
2023-02-28T00:57:32.254Z,5.34
2023-02-28T00:59:59.353Z,6.61
2023-02-28T01:02:26.459Z,6.53
2023-02-28T01:04:53.550Z,6.45
2023-02-28T01:07:20.676Z,5.03
2023-02-28T01:09:47.749Z,5.56
2023-02-28T01:12:14.880Z,6.63
2023-02-28T01:14:41.944Z,5.48
2023-02-28T01:17:09.855Z,5.08
2023-02-28T01:19:37.247Z,6.32
2023-02-28T01:22:06.274Z,5.24
2023-02-28T01:24:34.561Z,5.29
2023-02-28T01:27:01.741Z,5.83
2023-02-28T01:29:28.789Z,6.46
2023-02-28T01:31:55.885Z,5.16
2023-02-28T01:34:23.121Z,6.18
2023-02-28T01:36:51.744Z,5.39
2023-02-28T01:39:19.674Z,4.90
2023-02-28T01:41:46.797Z,5.21
2023-02-28T01:44:51.553Z,6.94
2023-02-28T01:47:18.677Z,6.25
2023-02-28T01:49:46.062Z,5.99
2023-02-28T01:52:19.308Z,6.07
2023-02-28T01:54:52.025Z,4.74
2023-02-28T01:57:27.543Z,6.16
2023-02-28T02:00:08.603Z,4.77
2023-02-28T02:02:40.263Z,6.78
2023-02-28T02:05:15.092Z,6.72
2023-02-28T02:07:44.091Z,6.66
2023-02-28T02:10:17.509Z,4.98
2023-02-28T02:13:26.399Z,6.67
2023-02-28T02:16:08.691Z,6.72
2023-02-28T02:18:53.347Z,6.05
2023-02-28T02:21:38.593Z,6.71
2023-02-28T02:24:24.333Z,6.72
2023-02-28T02:27:08.492Z,6.63
2023-02-28T02:29:35.651Z,6.59
2023-02-28T02:32:14.612Z,6.58
2023-02-28T02:34:52.186Z,6.65
2023-02-28T02:37:32.448Z,4.59
2023-02-28T02:40:03.006Z,6.64
2023-02-28T02:42:58.194Z,6.64
2023-02-28T02:45:36.883Z,4.58
2023-02-28T02:48:08.210Z,4.57
2023-02-28T02:50:40.296Z,4.95
2023-02-28T02:53:10.263Z,4.52
2023-02-28T02:55:44.161Z,5.48
2023-02-28T02:58:22.876Z,6.16
2023-02-28T03:00:54.633Z,5.67
2023-02-28T03:03:29.978Z,4.73
2023-02-28T03:06:00.234Z,4.35
2023-02-28T03:08:28.301Z,5.54
2023-02-28T03:11:02.356Z,5.48
2023-02-28T03:13:52.613Z,5.24
2023-02-28T03:16:30.138Z,6.33
2023-02-28T03:19:18.727Z,6.36
2023-02-28T03:22:14.658Z,6.42
2023-02-28T03:24:56.109Z,4.61
2023-02-28T03:27:43.483Z,5.35
2023-02-28T03:30:13.895Z,4.44
2023-02-28T03:32:59.647Z,6.37
2023-02-28T03:35:32.273Z,4.38
2023-02-28T03:38:37.971Z,6.52
2023-02-28T03:41:15.346Z,4.29
2023-02-28T03:43:50.411Z,5.79
2023-02-28T03:46:22.490Z,4.45
2023-02-28T03:49:03.700Z,5.82
2023-02-28T03:51:32.374Z,4.27
2023-02-28T03:54:05.863Z,5.49
2023-02-28T03:56:38.695Z,5.56
2023-02-28T03:59:12.004Z,5.49
2023-02-28T04:01:50.031Z,5.34
2023-02-28T04:04:18.415Z,4.26
2023-02-28T04:06:46.289Z,4.26
2023-02-28T04:09:15.484Z,5.52
2023-02-28T04:11:46.078Z,4.58
2023-02-28T04:14:13.443Z,6.30
2023-02-28T04:16:42.584Z,5.57
2023-02-28T04:19:12.253Z,4.71
2023-02-28T04:21:44.944Z,5.45
2023-02-28T04:24:15.512Z,4.29
2023-02-28T04:26:45.485Z,4.41
2023-02-28T04:29:14.444Z,6.12
2023-02-28T04:31:41.836Z,5.44
2023-02-28T04:34:08.967Z,5.59
2023-02-28T04:36:36.207Z,4.32
2023-02-28T04:39:03.761Z,5.70
2023-02-28T04:41:32.821Z,4.39
2023-02-28T04:44:00.227Z,4.15
2023-02-28T04:46:27.272Z,4.10
2023-02-28T04:48:55.600Z,5.42
2023-02-28T04:51:22.979Z,5.10
2023-02-28T04:53:50.132Z,6.18
2023-02-28T04:56:18.727Z,5.61
2023-02-28T04:58:46.713Z,4.25
2023-02-28T05:01:24.454Z,4.62
2023-02-28T05:03:52.364Z,4.18
2023-02-28T05:06:21.373Z,5.47
2023-02-28T05:08:48.572Z,4.56
2023-02-28T05:11:22.415Z,4.36
2023-02-28T05:13:50.365Z,5.70
2023-02-28T05:16:18.422Z,5.59
2023-02-28T05:18:46.134Z,4.38
2023-02-28T05:21:34.484Z,5.53
2023-02-28T05:24:07.800Z,4.45
2023-02-28T05:26:42.766Z,5.48
2023-02-28T05:29:11.021Z,4.33
2023-02-28T05:31:39.702Z,5.68
2023-02-28T05:34:06.874Z,4.31
2023-02-28T05:36:34.247Z,5.87
2023-02-28T05:39:01.352Z,5.67
2023-02-28T05:41:28.769Z,4.91
2023-02-28T05:43:56.129Z,4.23
2023-02-28T05:46:23.302Z,4.43
2023-02-28T05:48:50.530Z,5.63
2023-02-28T05:51:18.777Z,4.52
2023-02-28T05:53:45.850Z,5.64
2023-02-28T05:56:16.228Z,5.62
2023-02-28T05:58:43.716Z,4.23
2023-02-28T06:01:38.939Z,4.66
2023-02-28T06:04:14.335Z,5.86
2023-02-28T06:06:47.643Z,5.18
2023-02-28T06:09:14.863Z,6.67
2023-02-28T06:11:42.632Z,4.65
2023-02-28T06:14:16.081Z,4.85
2023-02-28T06:16:43.285Z,4.83
2023-02-28T06:19:11.000Z,6.22
2023-02-28T06:21:38.568Z,4.96
2023-02-28T06:24:06.078Z,6.21
2023-02-28T06:26:33.326Z,5.65
2023-02-28T06:29:01.936Z,5.54
2023-02-28T06:31:30.611Z,5.76
2023-02-28T06:33:57.919Z,6.63
2023-02-28T06:36:25.219Z,6.56
2023-02-28T06:38:55.882Z,5.70
2023-02-28T06:41:24.705Z,6.72
2023-02-28T06:43:51.677Z,6.75
2023-02-28T06:46:19.042Z,5.45
2023-02-28T06:48:46.444Z,7.19
2023-02-28T06:51:17.220Z,6.85
2023-02-28T06:53:44.312Z,6.14
2023-02-28T06:56:14.037Z,7.63
2023-02-28T06:58:41.804Z,6.52
2023-02-28T07:01:09.519Z,6.86
2023-02-28T07:03:37.819Z,7.13
2023-02-28T07:06:06.584Z,7.04
2023-02-28T07:08:34.663Z,6.09
2023-02-28T07:11:01.749Z,5.95
2023-02-28T07:13:28.910Z,5.97
2023-02-28T07:16:01.501Z,7.52
2023-02-28T07:18:28.886Z,5.82
2023-02-28T07:20:56.448Z,6.09
2023-02-28T07:23:24.207Z,5.96
2023-02-28T07:25:52.406Z,7.30
2023-02-28T07:28:19.503Z,6.15
2023-02-28T07:30:46.694Z,7.42
2023-02-28T07:33:13.697Z,7.27
2023-02-28T07:35:40.965Z,7.20
2023-02-28T07:38:08.826Z,6.28
2023-02-28T07:40:36.527Z,7.33
2023-02-28T07:43:04.570Z,7.45
2023-02-28T07:45:35.573Z,7.80
2023-02-28T07:48:03.376Z,8.40
2023-02-28T07:50:31.994Z,6.53
2023-02-28T07:53:00.372Z,6.56
2023-02-28T07:55:27.822Z,6.71
2023-02-28T07:57:55.350Z,6.74
2023-02-28T08:00:22.899Z,7.38
2023-02-28T08:02:50.264Z,6.58
2023-02-28T08:05:18.845Z,7.39
2023-02-28T08:07:48.767Z,7.07
2023-02-28T08:10:16.052Z,8.26
2023-02-28T08:12:43.161Z,8.85
2023-02-28T08:15:10.751Z,8.12
2023-02-28T08:17:37.890Z,8.13
2023-02-28T08:20:05.584Z,7.75
2023-02-28T08:22:32.558Z,8.27
2023-02-28T08:24:59.674Z,8.48
2023-02-28T08:27:26.728Z,8.91
2023-02-28T08:29:53.773Z,7.54
2023-02-28T08:32:29.286Z,7.85
2023-02-28T08:34:57.509Z,7.46
2023-02-28T08:37:24.668Z,9.35
2023-02-28T08:39:53.979Z,8.95
2023-02-28T08:42:22.852Z,9.47
2023-02-28T08:44:49.907Z,8.48
2023-02-28T08:47:17.123Z,7.79
2023-02-28T08:49:44.270Z,8.88
2023-02-28T08:52:11.225Z,9.40
2023-02-28T08:54:38.232Z,8.74
2023-02-28T08:57:05.454Z,8.57
2023-02-28T08:59:32.811Z,8.25
2023-02-28T09:01:59.855Z,9.75
2023-02-28T09:04:27.090Z,9.80
2023-02-28T09:06:54.124Z,9.92
2023-02-28T09:09:21.262Z,9.36
2023-02-28T09:11:48.302Z,8.37
2023-02-28T09:14:15.276Z,9.39
2023-02-28T09:16:42.283Z,10.35
2023-02-28T09:19:13.156Z,9.07
2023-02-28T09:21:40.556Z,9.64
2023-02-28T09:24:08.612Z,8.81
2023-02-28T09:26:42.734Z,9.54
2023-02-28T09:29:15.715Z,8.49
2023-02-28T09:31:42.729Z,8.43
2023-02-28T09:34:09.977Z,9.62
2023-02-28T09:36:45.264Z,8.45
2023-02-28T09:39:15.583Z,9.86
2023-02-28T09:41:51.550Z,8.86
2023-02-28T09:44:32.508Z,9.39
2023-02-28T09:47:06.836Z,9.90
2023-02-28T09:49:41.475Z,10.69
2023-02-28T09:52:17.321Z,10.03
2023-02-28T09:54:44.478Z,10.56
2023-02-28T09:57:30.799Z,10.79
2023-02-28T10:00:13.688Z,10.73
2023-02-28T10:02:52.860Z,10.77
2023-02-28T10:05:28.187Z,9.05
2023-02-28T10:08:12.997Z,10.76
2023-02-28T10:10:44.609Z,10.23
2023-02-28T10:13:17.821Z,10.62
2023-02-28T10:15:47.732Z,9.31
2023-02-28T10:18:21.714Z,9.70
2023-02-28T10:20:50.130Z,9.23
2023-02-28T10:23:37.117Z,9.98
2023-02-28T10:26:13.986Z,11.07
2023-02-28T10:28:41.502Z,10.98
2023-02-28T10:31:15.873Z,10.96
2023-02-28T10:33:42.967Z,10.20
2023-02-28T10:36:17.966Z,10.16
2023-02-28T10:38:46.301Z,11.07
2023-02-28T10:41:27.861Z,9.48
2023-02-28T10:44:14.799Z,10.37
2023-02-28T10:46:43.625Z,10.44
2023-02-28T10:49:24.944Z,9.55
2023-02-28T10:52:01.198Z,10.02
2023-02-28T10:54:30.856Z,8.80
2023-02-28T10:57:31.681Z,10.97
2023-02-28T11:00:17.041Z,9.64
2023-02-28T11:02:45.820Z,9.86
2023-02-28T11:05:33.307Z,10.86
2023-02-28T11:08:13.950Z,10.44
2023-02-28T11:10:45.536Z,10.50
2023-02-28T11:13:23.450Z,10.53
2023-02-28T11:15:56.727Z,9.78
2023-02-28T11:18:32.019Z,10.98
2023-02-28T11:21:02.277Z,10.75
2023-02-28T11:23:33.590Z,10.46
2023-02-28T11:26:03.019Z,9.53
2023-02-28T11:28:36.060Z,10.88
2023-02-28T11:31:05.784Z,11.11
2023-02-28T11:33:43.493Z,11.10
2023-02-28T11:36:25.743Z,10.52
2023-02-28T11:38:55.192Z,10.84
2023-02-28T11:41:28.392Z,11.21
2023-02-28T11:44:29.014Z,11.31
2023-02-28T11:47:02.052Z,10.21
2023-02-28T11:49:40.401Z,11.21
2023-02-28T11:52:30.595Z,11.15
2023-02-28T11:55:17.337Z,11.13
2023-02-28T11:57:57.146Z,10.15
2023-02-28T12:00:45.546Z,11.08
2023-02-28T12:03:38.632Z,10.54
2023-02-28T12:06:15.056Z,10.01
2023-02-28T12:09:10.242Z,11.06
2023-02-28T12:11:54.166Z,10.81
2023-02-28T12:14:48.704Z,10.97
2023-02-28T12:17:18.455Z,10.93
2023-02-28T12:19:58.099Z,10.62
2023-02-28T12:22:27.867Z,11.01
2023-02-28T12:25:21.442Z,11.05
2023-02-28T12:27:50.388Z,10.45
2023-02-28T12:30:28.226Z,11.04
2023-02-28T12:33:11.000Z,11.05
2023-02-28T12:35:58.153Z,10.91
2023-02-28T12:38:38.658Z,10.18
2023-02-28T12:41:21.802Z,10.90
2023-02-28T12:43:56.729Z,10.24
2023-02-28T12:46:42.697Z,10.86
2023-02-28T12:49:16.864Z,10.50
2023-02-28T12:51:45.863Z,9.41
2023-02-28T12:54:20.741Z,10.46
2023-02-28T12:57:06.184Z,10.51
2023-02-28T12:59:59.522Z,10.62
2023-02-28T13:03:14.686Z,10.54
2023-02-28T13:06:26.628Z,10.62
2023-02-28T13:09:05.911Z,10.60
2023-02-28T13:11:46.380Z,9.99
2023-02-28T13:14:38.474Z,9.64
2023-02-28T13:17:08.273Z,10.59
2023-02-28T13:19:38.879Z,10.03
2023-02-28T13:22:06.964Z,9.82
2023-02-28T13:24:56.321Z,8.80
2023-02-28T13:27:35.935Z,9.95
2023-02-28T13:30:41.500Z,9.49
2023-02-28T13:33:30.004Z,10.39
2023-02-28T13:36:15.495Z,10.55
2023-02-28T13:38:57.562Z,9.95
2023-02-28T13:41:31.011Z,10.57
2023-02-28T13:44:21.112Z,10.59
2023-02-28T13:46:50.889Z,10.62
2023-02-28T13:49:26.429Z,10.64
2023-02-28T13:52:18.984Z,10.53
2023-02-28T13:55:12.919Z,10.64
2023-02-28T13:57:54.314Z,10.64
2023-02-28T14:00:36.269Z,10.62
2023-02-28T14:03:12.461Z,10.62
2023-02-28T14:05:39.975Z,10.39
2023-02-28T14:08:14.826Z,10.59
2023-02-28T14:10:48.260Z,10.34
2023-02-28T14:13:38.632Z,10.62
2023-02-28T14:16:08.236Z,10.22
2023-02-28T14:18:37.938Z,9.55
2023-02-28T14:21:13.478Z,10.30
2023-02-28T14:24:07.968Z,10.43
2023-02-28T14:27:03.029Z,10.44
2023-02-28T14:29:51.299Z,10.46
2023-02-28T14:32:33.993Z,9.78
2023-02-28T14:35:21.553Z,10.28
2023-02-28T14:37:50.773Z,9.73
2023-02-28T14:40:28.998Z,9.44
2023-02-28T14:43:07.865Z,10.36
2023-02-28T14:45:38.427Z,8.60
2023-02-28T14:48:10.860Z,9.37
2023-02-28T14:50:38.988Z,9.99
2023-02-28T14:53:13.636Z,10.15
2023-02-28T14:55:46.151Z,10.13
2023-02-28T14:58:25.051Z,10.29
2023-02-28T15:00:54.657Z,9.33
2023-02-28T15:03:26.245Z,10.22
2023-02-28T15:06:05.677Z,10.23
2023-02-28T15:08:37.271Z,10.22
2023-02-28T15:11:20.426Z,9.23
2023-02-28T15:13:51.005Z,10.17
2023-02-28T15:16:23.189Z,9.93
2023-02-28T15:19:07.263Z,9.64
2023-02-28T15:21:41.448Z,8.88
2023-02-28T15:24:28.682Z,8.26
2023-02-28T15:26:58.595Z,9.54
2023-02-28T15:29:37.466Z,9.53
2023-02-28T15:32:07.433Z,9.24
2023-02-28T15:34:44.406Z,9.85
2023-02-28T15:37:33.277Z,10.05
2023-02-28T15:40:13.543Z,9.38
2023-02-28T15:42:40.752Z,8.25
2023-02-28T15:45:29.787Z,9.99
2023-02-28T15:47:59.932Z,9.18
2023-02-28T15:50:31.925Z,9.77
2023-02-28T15:52:59.098Z,9.11
2023-02-28T15:55:29.333Z,8.63
2023-02-28T15:58:00.789Z,9.95
2023-02-28T16:00:29.644Z,9.92
2023-02-28T16:02:56.794Z,8.91
2023-02-28T16:05:34.917Z,9.96
2023-02-28T16:08:12.596Z,9.88
2023-02-28T16:10:39.646Z,8.81
2023-02-28T16:13:07.089Z,8.17
2023-02-28T16:15:43.570Z,9.79
2023-02-28T16:18:14.214Z,9.62
2023-02-28T16:20:41.625Z,8.22
2023-02-28T16:23:09.231Z,9.88
2023-02-28T16:25:39.673Z,8.03
2023-02-28T16:28:33.791Z,7.93
2023-02-28T16:31:03.841Z,9.85
2023-02-28T16:33:31.898Z,8.59
2023-02-28T16:35:59.072Z,9.82
2023-02-28T16:38:26.344Z,9.03
2023-02-28T16:40:57.231Z,9.77
2023-02-28T16:43:27.539Z,8.87
2023-02-28T16:46:01.338Z,9.80
2023-02-28T16:48:28.711Z,8.29
2023-02-28T16:50:55.665Z,8.81
2023-02-28T16:53:22.689Z,9.71
2023-02-28T16:55:51.937Z,8.47
2023-02-28T16:58:20.413Z,8.74
2023-02-28T17:00:47.332Z,9.53
2023-02-28T17:03:32.696Z,9.02
2023-02-28T17:06:00.760Z,9.27
2023-02-28T17:08:29.886Z,8.92
2023-02-28T17:10:57.243Z,9.31
2023-02-28T17:13:24.343Z,8.32
2023-02-28T17:15:51.677Z,8.53
2023-02-28T17:18:20.848Z,9.21
2023-02-28T17:20:48.236Z,8.00
2023-02-28T17:23:15.252Z,8.30
2023-02-28T17:25:42.232Z,9.42
2023-02-28T17:28:10.344Z,9.23
2023-02-28T17:30:37.597Z,9.28
2023-02-28T17:33:04.601Z,8.11
2023-02-28T17:35:31.578Z,8.31
2023-02-28T17:37:58.674Z,8.65
2023-02-28T17:40:25.752Z,9.31
2023-02-28T17:42:53.464Z,9.43
2023-02-28T17:45:21.080Z,7.98
2023-02-28T17:47:51.322Z,8.54
2023-02-28T17:50:22.832Z,9.11
2023-02-28T17:52:51.609Z,8.81
2023-02-28T17:55:20.120Z,8.77
2023-02-28T17:57:47.487Z,9.41
2023-02-28T18:00:18.491Z,8.07
2023-02-28T18:02:45.997Z,8.72
2023-02-28T18:05:13.099Z,9.02
2023-02-28T18:07:40.868Z,8.44
2023-02-28T18:10:17.219Z,8.57
2023-02-28T18:12:45.041Z,8.42
2023-02-28T18:15:12.221Z,7.57
2023-02-28T18:17:39.160Z,7.88
2023-02-28T18:20:07.149Z,9.25
2023-02-28T18:22:36.994Z,8.66
2023-02-28T18:25:05.956Z,9.13
2023-02-28T18:27:33.071Z,7.64
2023-02-28T18:30:00.037Z,8.98
2023-02-28T18:32:27.504Z,9.15
2023-02-28T18:34:54.680Z,7.50
2023-02-28T18:37:21.736Z,8.39
2023-02-28T18:39:48.666Z,8.52
2023-02-28T18:42:15.623Z,8.16
2023-02-28T18:44:42.790Z,9.07
2023-02-28T18:47:09.808Z,8.87
2023-02-28T18:49:38.195Z,8.65
2023-02-28T18:52:05.546Z,8.73
2023-02-28T18:54:32.638Z,8.02
2023-02-28T18:56:59.617Z,7.86
2023-02-28T18:59:26.628Z,7.97
2023-02-28T19:01:53.658Z,7.15
2023-02-28T19:04:20.678Z,8.69
2023-02-28T19:06:47.748Z,6.68
2023-02-28T19:09:14.876Z,7.63
2023-02-28T19:11:42.090Z,7.98
2023-02-28T19:14:09.762Z,8.45
2023-02-28T19:16:36.950Z,8.14
2023-02-28T19:19:04.009Z,7.46
2023-02-28T19:21:31.040Z,6.29
2023-02-28T19:23:58.155Z,7.93
2023-02-28T19:26:27.174Z,7.28
2023-02-28T19:28:54.355Z,8.05
2023-02-28T19:31:25.215Z,7.46
2023-02-28T19:33:53.138Z,7.63
2023-02-28T19:36:21.786Z,8.11
2023-02-28T19:38:49.408Z,8.04
2023-02-28T19:41:17.692Z,7.64
2023-02-28T19:43:44.703Z,7.22
2023-02-28T19:46:12.940Z,6.89
2023-02-28T19:48:40.460Z,6.50
2023-02-28T19:51:10.518Z,7.75
2023-02-28T19:53:39.153Z,6.57
2023-02-28T19:56:07.028Z,6.09
2023-02-28T19:58:34.753Z,7.36
2023-02-28T20:01:13.825Z,7.07
2023-02-28T20:03:41.247Z,7.66
2023-02-28T20:06:13.914Z,6.60
2023-02-28T20:08:41.114Z,7.48
2023-02-28T20:11:18.003Z,7.49
2023-02-28T20:13:45.701Z,5.77
2023-02-28T20:16:14.015Z,7.56
2023-02-28T20:18:44.199Z,7.48
2023-02-28T20:21:13.123Z,6.77
2023-02-28T20:23:40.892Z,7.72
2023-02-28T20:26:08.029Z,7.08
2023-02-28T20:28:35.097Z,7.64
2023-02-28T20:31:02.180Z,6.69
2023-02-28T20:33:29.270Z,6.75
2023-02-28T20:36:03.389Z,7.29
2023-02-28T20:38:30.490Z,6.70
2023-02-28T20:41:01.458Z,7.47
2023-02-28T20:43:29.257Z,5.50
2023-02-28T20:45:58.703Z,6.73
2023-02-28T20:48:26.096Z,5.97
2023-02-28T20:50:55.132Z,6.63
2023-02-28T20:53:24.283Z,6.27
2023-02-28T20:56:04.936Z,5.56
2023-02-28T20:58:35.764Z,7.14
2023-02-28T21:01:18.244Z,7.39
2023-02-28T21:03:48.017Z,7.21
2023-02-28T21:06:17.028Z,5.59
2023-02-28T21:08:45.079Z,5.59
2023-02-28T21:11:14.469Z,6.00
2023-02-28T21:13:42.679Z,5.66
2023-02-28T21:16:15.527Z,7.30
2023-02-28T21:18:42.844Z,7.20
2023-02-28T21:21:19.614Z,5.96
2023-02-28T21:23:47.318Z,6.27
2023-02-28T21:26:18.704Z,7.09
2023-02-28T21:28:54.882Z,6.94
2023-02-28T21:31:23.886Z,6.58
2023-02-28T21:33:53.766Z,6.06
2023-02-28T21:36:23.990Z,7.08
2023-02-28T21:38:57.469Z,6.28
2023-02-28T21:41:25.264Z,7.01
2023-02-28T21:43:53.336Z,6.90
2023-02-28T21:46:23.690Z,6.15
2023-02-28T21:48:51.207Z,7.14
2023-02-28T21:51:21.118Z,6.76
2023-02-28T21:53:48.638Z,5.34
2023-02-28T21:56:25.093Z,7.20
2023-02-28T21:59:00.345Z,6.43
2023-02-28T22:01:39.160Z,5.38
2023-02-28T22:04:09.226Z,7.05
2023-02-28T22:06:39.465Z,6.45
2023-02-28T22:09:09.173Z,7.16
2023-02-28T22:11:37.602Z,6.49
2023-02-28T22:14:06.799Z,5.49
2023-02-28T22:16:49.585Z,6.51
2023-02-28T22:19:18.226Z,5.50
2023-02-28T22:21:46.879Z,7.03
2023-02-28T22:24:14.917Z,6.53
2023-02-28T22:26:41.961Z,7.22
2023-02-28T22:29:09.375Z,6.00
2023-02-28T22:31:36.685Z,6.81
2023-02-28T22:34:06.832Z,7.01
2023-02-28T22:36:34.316Z,6.48
2023-02-28T22:39:01.893Z,6.78
2023-02-28T22:41:29.870Z,6.24
2023-02-28T22:44:00.092Z,6.61
2023-02-28T22:46:29.678Z,6.07
2023-02-28T22:48:58.802Z,6.72
2023-02-28T22:51:27.863Z,5.99
2023-02-28T22:53:56.935Z,6.53
2023-02-28T22:56:25.749Z,6.47
2023-02-28T22:58:55.885Z,7.13
2023-02-28T23:01:25.353Z,6.89
2023-02-28T23:03:52.698Z,6.96
2023-02-28T23:06:28.472Z,6.48
2023-02-28T23:08:57.811Z,5.74
2023-02-28T23:11:28.328Z,6.94
2023-02-28T23:14:01.315Z,6.73
2023-02-28T23:16:33.097Z,7.00
2023-02-28T23:19:02.845Z,6.07
2023-02-28T23:21:31.004Z,6.85
2023-02-28T23:23:58.467Z,6.11
2023-02-28T23:26:25.512Z,6.77
2023-02-28T23:28:52.634Z,6.84
2023-02-28T23:31:21.561Z,6.34
2023-02-28T23:33:48.620Z,6.80
2023-02-28T23:36:17.058Z,6.92
2023-02-28T23:38:48.003Z,4.98
2023-02-28T23:41:16.073Z,6.83
2023-02-28T23:43:43.966Z,6.81
2023-02-28T23:46:13.821Z,5.61
2023-02-28T23:48:41.472Z,6.90
2023-02-28T23:51:17.900Z,6.58
2023-02-28T23:53:47.230Z,5.93
2023-02-28T23:56:17.267Z,5.58
2023-02-28T23:58:45.958Z,6.94
